sensor_id;sensor_type;location;lat;lon;timestamp;temperature;humidity
26952;DHT22;14507;52.418;13.398;2023-05-08T00:00:43;8.70;99.90
26952;DHT22;14507;52.418;13.398;2023-05-08T00:03:08;8.70;99.90
26952;DHT22;14507;52.418;13.398;2023-05-08T00:05:34;8.70;99.90
26952;DHT22;14507;52.418;13.398;2023-05-08T00:08:00;8.60;99.90
26952;DHT22;14507;52.418;13.398;2023-05-08T00:10:29;8.60;99.90
26952;DHT22;14507;52.418;13.398;2023-05-08T00:12:55;8.60;99.90
26952;DHT22;14507;52.418;13.398;2023-05-08T00:15:21;8.60;99.90
26952;DHT22;14507;52.418;13.398;2023-05-08T00:17:47;8.60;99.90
26952;DHT22;14507;52.418;13.398;2023-05-08T00:20:12;8.50;99.90
26952;DHT22;14507;52.418;13.398;2023-05-08T00:22:38;8.50;99.90
26952;DHT22;14507;52.418;13.398;2023-05-08T00:25:04;8.50;99.90
26952;DHT22;14507;52.418;13.398;2023-05-08T00:27:31;8.40;99.90
26952;DHT22;14507;52.418;13.398;2023-05-08T00:29:57;8.40;99.90
26952;DHT22;14507;52.418;13.398;2023-05-08T00:32:23;8.40;99.90
26952;DHT22;14507;52.418;13.398;2023-05-08T00:34:49;8.30;99.90
26952;DHT22;14507;52.418;13.398;2023-05-08T00:37:15;8.30;99.90
26952;DHT22;14507;52.418;13.398;2023-05-08T00:39:40;8.30;99.90
26952;DHT22;14507;52.418;13.398;2023-05-08T00:42:06;8.30;99.90
26952;DHT22;14507;52.418;13.398;2023-05-08T00:44:32;8.20;99.90
26952;DHT22;14507;52.418;13.398;2023-05-08T00:46:58;8.20;99.90
26952;DHT22;14507;52.418;13.398;2023-05-08T00:49:24;8.20;99.90
26952;DHT22;14507;52.418;13.398;2023-05-08T00:51:52;8.10;99.90
26952;DHT22;14507;52.418;13.398;2023-05-08T00:54:19;8.10;99.90
26952;DHT22;14507;52.418;13.398;2023-05-08T00:56:45;8.00;99.90
26952;DHT22;14507;52.418;13.398;2023-05-08T00:59:13;8.00;99.90
26952;DHT22;14507;52.418;13.398;2023-05-08T01:01:40;8.00;99.90
26952;DHT22;14507;52.418;13.398;2023-05-08T01:04:06;7.90;99.90
26952;DHT22;14507;52.418;13.398;2023-05-08T01:06:32;7.90;99.90
26952;DHT22;14507;52.418;13.398;2023-05-08T01:08:59;7.90;99.90
26952;DHT22;14507;52.418;13.398;2023-05-08T01:16:43;7.80;99.90
26952;DHT22;14507;52.418;13.398;2023-05-08T01:33:16;7.60;99.90
26952;DHT22;14507;52.418;13.398;2023-05-08T01:35:44;7.60;99.90
26952;DHT22;14507;52.418;13.398;2023-05-08T01:38:34;7.60;99.90
26952;DHT22;14507;52.418;13.398;2023-05-08T01:41:16;7.60;99.90
26952;DHT22;14507;52.418;13.398;2023-05-08T01:43:54;7.60;99.90
26952;DHT22;14507;52.418;13.398;2023-05-08T01:46:22;7.60;99.90
26952;DHT22;14507;52.418;13.398;2023-05-08T01:48:59;7.50;99.90
26952;DHT22;14507;52.418;13.398;2023-05-08T01:51:34;7.50;99.90
26952;DHT22;14507;52.418;13.398;2023-05-08T01:54:04;7.50;99.90
26952;DHT22;14507;52.418;13.398;2023-05-08T01:56:31;7.50;99.90
26952;DHT22;14507;52.418;13.398;2023-05-08T01:58:58;7.50;99.90
26952;DHT22;14507;52.418;13.398;2023-05-08T02:01:25;7.40;99.90
26952;DHT22;14507;52.418;13.398;2023-05-08T02:03:54;7.40;99.90
26952;DHT22;14507;52.418;13.398;2023-05-08T02:06:21;7.40;99.90
26952;DHT22;14507;52.418;13.398;2023-05-08T02:08:48;7.30;99.90
26952;DHT22;14507;52.418;13.398;2023-05-08T02:11:16;7.30;99.90
26952;DHT22;14507;52.418;13.398;2023-05-08T02:13:46;7.30;99.90
26952;DHT22;14507;52.418;13.398;2023-05-08T02:16:13;7.20;99.90
26952;DHT22;14507;52.418;13.398;2023-05-08T02:18:43;7.20;99.90
26952;DHT22;14507;52.418;13.398;2023-05-08T02:21:11;7.10;99.90
26952;DHT22;14507;52.418;13.398;2023-05-08T02:23:40;7.20;99.90
26952;DHT22;14507;52.418;13.398;2023-05-08T02:26:08;7.10;99.90
26952;DHT22;14507;52.418;13.398;2023-05-08T02:28:35;7.10;99.90
26952;DHT22;14507;52.418;13.398;2023-05-08T02:31:01;7.00;99.90
26952;DHT22;14507;52.418;13.398;2023-05-08T02:33:28;7.00;99.90
26952;DHT22;14507;52.418;13.398;2023-05-08T02:35:54;7.00;99.90
26952;DHT22;14507;52.418;13.398;2023-05-08T02:38:22;7.00;99.90
26952;DHT22;14507;52.418;13.398;2023-05-08T02:40:52;7.00;99.90
26952;DHT22;14507;52.418;13.398;2023-05-08T02:43:19;6.90;99.90
26952;DHT22;14507;52.418;13.398;2023-05-08T02:45:56;7.00;99.90
26952;DHT22;14507;52.418;13.398;2023-05-08T02:48:32;6.90;99.90
26952;DHT22;14507;52.418;13.398;2023-05-08T02:51:03;6.90;99.90
26952;DHT22;14507;52.418;13.398;2023-05-08T02:53:39;6.90;99.90
26952;DHT22;14507;52.418;13.398;2023-05-08T02:56:15;6.90;99.90
26952;DHT22;14507;52.418;13.398;2023-05-08T02:58:54;6.80;99.90
26952;DHT22;14507;52.418;13.398;2023-05-08T03:01:30;6.80;99.90
26952;DHT22;14507;52.418;13.398;2023-05-08T03:04:07;6.80;99.90
26952;DHT22;14507;52.418;13.398;2023-05-08T03:06:40;6.80;99.90
26952;DHT22;14507;52.418;13.398;2023-05-08T03:09:11;6.90;99.90
26952;DHT22;14507;52.418;13.398;2023-05-08T03:11:40;6.90;99.90
26952;DHT22;14507;52.418;13.398;2023-05-08T03:14:10;6.80;99.90
26952;DHT22;14507;52.418;13.398;2023-05-08T03:16:39;6.80;99.90
26952;DHT22;14507;52.418;13.398;2023-05-08T03:19:11;6.80;99.90
26952;DHT22;14507;52.418;13.398;2023-05-08T03:21:40;6.80;99.90
26952;DHT22;14507;52.418;13.398;2023-05-08T03:24:08;6.80;99.90
26952;DHT22;14507;52.418;13.398;2023-05-08T03:26:34;6.70;99.90
26952;DHT22;14507;52.418;13.398;2023-05-08T03:29:00;6.80;99.90
26952;DHT22;14507;52.418;13.398;2023-05-08T03:31:27;6.70;99.90
26952;DHT22;14507;52.418;13.398;2023-05-08T03:33:56;6.70;99.90
26952;DHT22;14507;52.418;13.398;2023-05-08T03:36:22;6.70;99.90
26952;DHT22;14507;52.418;13.398;2023-05-08T03:38:49;6.70;99.90
26952;DHT22;14507;52.418;13.398;2023-05-08T03:41:15;6.70;99.90
26952;DHT22;14507;52.418;13.398;2023-05-08T03:43:41;6.70;99.90
26952;DHT22;14507;52.418;13.398;2023-05-08T03:46:07;6.60;99.90
26952;DHT22;14507;52.418;13.398;2023-05-08T03:48:34;6.70;99.90
26952;DHT22;14507;52.418;13.398;2023-05-08T03:51:03;6.70;99.90
26952;DHT22;14507;52.418;13.398;2023-05-08T03:53:31;6.60;99.90
26952;DHT22;14507;52.418;13.398;2023-05-08T03:55:57;6.70;99.90
26952;DHT22;14507;52.418;13.398;2023-05-08T03:58:36;6.70;99.90
26952;DHT22;14507;52.418;13.398;2023-05-08T04:01:04;6.60;99.90
26952;DHT22;14507;52.418;13.398;2023-05-08T04:06:36;6.60;99.90
26952;DHT22;14507;52.418;13.398;2023-05-08T04:09:07;6.70;99.90
26952;DHT22;14507;52.418;13.398;2023-05-08T04:12:16;6.60;99.90
26952;DHT22;14507;52.418;13.398;2023-05-08T04:14:59;6.60;99.90
26952;DHT22;14507;52.418;13.398;2023-05-08T04:17:50;6.70;99.90
26952;DHT22;14507;52.418;13.398;2023-05-08T04:20:25;6.70;99.90
26952;DHT22;14507;52.418;13.398;2023-05-08T04:22:53;6.80;99.90
26952;DHT22;14507;52.418;13.398;2023-05-08T04:25:19;6.90;99.90
26952;DHT22;14507;52.418;13.398;2023-05-08T04:27:46;6.90;99.90
26952;DHT22;14507;52.418;13.398;2023-05-08T04:30:13;7.00;99.90
26952;DHT22;14507;52.418;13.398;2023-05-08T04:32:40;7.20;99.90
26952;DHT22;14507;52.418;13.398;2023-05-08T04:35:07;7.30;99.90
26952;DHT22;14507;52.418;13.398;2023-05-08T04:37:33;7.40;99.90
26952;DHT22;14507;52.418;13.398;2023-05-08T04:40:00;7.70;99.90
26952;DHT22;14507;52.418;13.398;2023-05-08T04:42:26;7.90;99.90
26952;DHT22;14507;52.418;13.398;2023-05-08T04:44:53;8.00;99.90
26952;DHT22;14507;52.418;13.398;2023-05-08T04:47:19;8.30;99.90
26952;DHT22;14507;52.418;13.398;2023-05-08T04:49:45;8.50;99.90
26952;DHT22;14507;52.418;13.398;2023-05-08T04:52:11;8.70;99.90
26952;DHT22;14507;52.418;13.398;2023-05-08T04:54:36;8.90;99.90
26952;DHT22;14507;52.418;13.398;2023-05-08T04:57:02;9.20;99.90
26952;DHT22;14507;52.418;13.398;2023-05-08T04:59:28;9.40;99.90
26952;DHT22;14507;52.418;13.398;2023-05-08T05:01:55;9.50;99.90
26952;DHT22;14507;52.418;13.398;2023-05-08T05:04:21;9.80;99.90
26952;DHT22;14507;52.418;13.398;2023-05-08T05:06:47;10.10;99.90
26952;DHT22;14507;52.418;13.398;2023-05-08T05:09:13;10.30;99.90
26952;DHT22;14507;52.418;13.398;2023-05-08T05:11:38;10.30;99.90
26952;DHT22;14507;52.418;13.398;2023-05-08T05:14:04;10.40;99.90
26952;DHT22;14507;52.418;13.398;2023-05-08T05:16:30;10.60;99.90
26952;DHT22;14507;52.418;13.398;2023-05-08T05:18:56;10.90;99.90
26952;DHT22;14507;52.418;13.398;2023-05-08T05:21:22;11.30;99.90
26952;DHT22;14507;52.418;13.398;2023-05-08T05:23:47;11.70;99.90
26952;DHT22;14507;52.418;13.398;2023-05-08T05:26:13;11.90;99.90
26952;DHT22;14507;52.418;13.398;2023-05-08T05:28:38;11.80;99.90
26952;DHT22;14507;52.418;13.398;2023-05-08T05:31:04;12.00;99.90
26952;DHT22;14507;52.418;13.398;2023-05-08T05:33:30;12.00;99.90
26952;DHT22;14507;52.418;13.398;2023-05-08T05:35:55;11.90;99.90
26952;DHT22;14507;52.418;13.398;2023-05-08T05:38:21;11.80;99.90
26952;DHT22;14507;52.418;13.398;2023-05-08T05:40:47;11.90;99.90
26952;DHT22;14507;52.418;13.398;2023-05-08T05:43:12;11.90;99.90
26952;DHT22;14507;52.418;13.398;2023-05-08T05:45:38;12.10;99.50
26952;DHT22;14507;52.418;13.398;2023-05-08T05:48:04;12.30;99.00
26952;DHT22;14507;52.418;13.398;2023-05-08T05:50:30;12.60;98.20
26952;DHT22;14507;52.418;13.398;2023-05-08T05:52:56;12.40;98.40
26952;DHT22;14507;52.418;13.398;2023-05-08T05:55:22;12.40;99.20
26952;DHT22;14507;52.418;13.398;2023-05-08T05:57:48;12.80;98.30
26952;DHT22;14507;52.418;13.398;2023-05-08T06:00:14;13.10;97.80
26952;DHT22;14507;52.418;13.398;2023-05-08T06:02:41;13.50;96.60
26952;DHT22;14507;52.418;13.398;2023-05-08T06:05:07;13.50;96.30
26952;DHT22;14507;52.418;13.398;2023-05-08T06:07:33;13.60;96.00
26952;DHT22;14507;52.418;13.398;2023-05-08T06:09:59;13.30;96.20
26952;DHT22;14507;52.418;13.398;2023-05-08T06:12:24;13.60;95.80
26952;DHT22;14507;52.418;13.398;2023-05-08T06:14:51;13.30;95.60
26952;DHT22;14507;52.418;13.398;2023-05-08T06:17:17;13.40;95.40
26952;DHT22;14507;52.418;13.398;2023-05-08T06:19:43;13.60;95.50
26952;DHT22;14507;52.418;13.398;2023-05-08T06:22:17;13.90;94.90
26952;DHT22;14507;52.418;13.398;2023-05-08T06:24:43;13.60;95.00
26952;DHT22;14507;52.418;13.398;2023-05-08T06:27:10;13.90;94.80
26952;DHT22;14507;52.418;13.398;2023-05-08T06:29:36;14.20;94.20
26952;DHT22;14507;52.418;13.398;2023-05-08T06:32:01;14.40;94.10
26952;DHT22;14507;52.418;13.398;2023-05-08T06:34:27;14.10;93.80
26952;DHT22;14507;52.418;13.398;2023-05-08T06:36:52;13.70;94.90
26952;DHT22;14507;52.418;13.398;2023-05-08T06:39:18;13.90;95.00
26952;DHT22;14507;52.418;13.398;2023-05-08T06:41:47;14.40;93.40
26952;DHT22;14507;52.418;13.398;2023-05-08T06:44:13;14.30;93.40
26952;DHT22;14507;52.418;13.398;2023-05-08T06:46:39;14.80;93.20
26952;DHT22;14507;52.418;13.398;2023-05-08T06:49:05;15.40;91.70
26952;DHT22;14507;52.418;13.398;2023-05-08T06:51:30;15.70;90.90
26952;DHT22;14507;52.418;13.398;2023-05-08T06:53:57;16.10;90.10
26952;DHT22;14507;52.418;13.398;2023-05-08T06:56:23;15.40;90.10
26952;DHT22;14507;52.418;13.398;2023-05-08T06:58:49;15.30;90.50
26952;DHT22;14507;52.418;13.398;2023-05-08T07:01:15;15.50;90.30
26952;DHT22;14507;52.418;13.398;2023-05-08T07:03:40;16.10;88.50
26952;DHT22;14507;52.418;13.398;2023-05-08T07:06:07;16.30;87.70
26952;DHT22;14507;52.418;13.398;2023-05-08T07:08:36;16.60;85.50
26952;DHT22;14507;52.418;13.398;2023-05-08T07:11:02;16.90;84.90
26952;DHT22;14507;52.418;13.398;2023-05-08T07:13:28;17.20;85.70
26952;DHT22;14507;52.418;13.398;2023-05-08T07:15:54;17.00;84.20
26952;DHT22;14507;52.418;13.398;2023-05-08T07:18:20;17.10;82.60
26952;DHT22;14507;52.418;13.398;2023-05-08T07:20:46;17.10;81.20
26952;DHT22;14507;52.418;13.398;2023-05-08T07:23:12;16.40;82.70
26952;DHT22;14507;52.418;13.398;2023-05-08T07:25:38;16.20;83.50
26952;DHT22;14507;52.418;13.398;2023-05-08T07:28:03;16.20;83.00
26952;DHT22;14507;52.418;13.398;2023-05-08T07:30:29;16.00;82.60
26952;DHT22;14507;52.418;13.398;2023-05-08T07:32:55;16.10;83.30
26952;DHT22;14507;52.418;13.398;2023-05-08T07:35:21;16.60;83.70
26952;DHT22;14507;52.418;13.398;2023-05-08T07:37:46;17.10;81.80
26952;DHT22;14507;52.418;13.398;2023-05-08T07:40:12;17.30;79.80
26952;DHT22;14507;52.418;13.398;2023-05-08T07:42:41;17.00;79.30
26952;DHT22;14507;52.418;13.398;2023-05-08T07:45:11;17.00;81.80
26952;DHT22;14507;52.418;13.398;2023-05-08T07:47:38;17.20;79.40
26952;DHT22;14507;52.418;13.398;2023-05-08T07:50:04;17.10;81.50
26952;DHT22;14507;52.418;13.398;2023-05-08T07:52:30;17.20;78.60
26952;DHT22;14507;52.418;13.398;2023-05-08T07:54:56;17.70;79.80
26952;DHT22;14507;52.418;13.398;2023-05-08T07:57:22;17.60;79.10
26952;DHT22;14507;52.418;13.398;2023-05-08T07:59:49;17.50;77.10
26952;DHT22;14507;52.418;13.398;2023-05-08T08:02:14;17.20;77.90
26952;DHT22;14507;52.418;13.398;2023-05-08T08:04:40;17.00;78.50
26952;DHT22;14507;52.418;13.398;2023-05-08T08:07:05;17.10;80.00
26952;DHT22;14507;52.418;13.398;2023-05-08T08:09:31;17.70;77.40
26952;DHT22;14507;52.418;13.398;2023-05-08T08:11:57;18.30;76.00
26952;DHT22;14507;52.418;13.398;2023-05-08T08:14:22;18.90;75.80
26952;DHT22;14507;52.418;13.398;2023-05-08T08:16:48;19.40;72.90
26952;DHT22;14507;52.418;13.398;2023-05-08T08:19:13;19.60;71.10
26952;DHT22;14507;52.418;13.398;2023-05-08T08:21:42;19.50;69.30
26952;DHT22;14507;52.418;13.398;2023-05-08T08:24:08;18.90;69.00
26952;DHT22;14507;52.418;13.398;2023-05-08T08:26:34;18.50;69.30
26952;DHT22;14507;52.418;13.398;2023-05-08T08:28:59;17.90;70.60
26952;DHT22;14507;52.418;13.398;2023-05-08T08:31:26;17.50;71.30
26952;DHT22;14507;52.418;13.398;2023-05-08T08:33:52;17.30;71.10
26952;DHT22;14507;52.418;13.398;2023-05-08T08:36:18;17.40;72.50
26952;DHT22;14507;52.418;13.398;2023-05-08T08:38:44;17.70;71.50
26952;DHT22;14507;52.418;13.398;2023-05-08T08:41:12;17.90;69.60
26952;DHT22;14507;52.418;13.398;2023-05-08T08:43:39;17.60;70.30
26952;DHT22;14507;52.418;13.398;2023-05-08T08:46:11;17.70;69.90
26952;DHT22;14507;52.418;13.398;2023-05-08T08:48:44;17.80;70.40
26952;DHT22;14507;52.418;13.398;2023-05-08T08:54:28;17.60;68.30
26952;DHT22;14507;52.418;13.398;2023-05-08T08:56:54;17.40;69.20
26952;DHT22;14507;52.418;13.398;2023-05-08T08:59:22;17.60;69.60
26952;DHT22;14507;52.418;13.398;2023-05-08T09:01:57;17.80;68.70
26952;DHT22;14507;52.418;13.398;2023-05-08T09:04:24;17.70;68.60
26952;DHT22;14507;52.418;13.398;2023-05-08T09:06:52;17.60;68.80
26952;DHT22;14507;52.418;13.398;2023-05-08T09:09:18;17.30;71.00
26952;DHT22;14507;52.418;13.398;2023-05-08T09:11:45;17.30;69.90
26952;DHT22;14507;52.418;13.398;2023-05-08T09:14:11;17.50;70.10
26952;DHT22;14507;52.418;13.398;2023-05-08T09:16:36;17.70;69.10
26952;DHT22;14507;52.418;13.398;2023-05-08T09:19:03;17.60;71.70
26952;DHT22;14507;52.418;13.398;2023-05-08T09:21:29;17.80;68.40
26952;DHT22;14507;52.418;13.398;2023-05-08T09:23:58;17.80;68.70
26952;DHT22;14507;52.418;13.398;2023-05-08T09:26:32;17.30;69.70
26952;DHT22;14507;52.418;13.398;2023-05-08T09:31:43;17.20;68.60
26952;DHT22;14507;52.418;13.398;2023-05-08T09:34:11;17.10;70.40
26952;DHT22;14507;52.418;13.398;2023-05-08T09:36:46;17.30;69.70
26952;DHT22;14507;52.418;13.398;2023-05-08T09:39:11;17.20;69.60
26952;DHT22;14507;52.418;13.398;2023-05-08T09:41:37;17.30;70.20
26952;DHT22;14507;52.418;13.398;2023-05-08T09:44:05;17.50;70.30
26952;DHT22;14507;52.418;13.398;2023-05-08T09:46:32;17.60;70.80
26952;DHT22;14507;52.418;13.398;2023-05-08T09:49:02;17.60;69.60
26952;DHT22;14507;52.418;13.398;2023-05-08T09:51:29;17.40;69.20
26952;DHT22;14507;52.418;13.398;2023-05-08T09:53:57;17.40;67.90
26952;DHT22;14507;52.418;13.398;2023-05-08T09:56:37;17.20;67.70
26952;DHT22;14507;52.418;13.398;2023-05-08T10:01:46;17.50;68.40
26952;DHT22;14507;52.418;13.398;2023-05-08T10:04:13;17.60;67.10
26952;DHT22;14507;52.418;13.398;2023-05-08T10:06:39;17.80;65.80
26952;DHT22;14507;52.418;13.398;2023-05-08T10:11:31;17.60;67.30
26952;DHT22;14507;52.418;13.398;2023-05-08T10:13:57;17.60;67.30
26952;DHT22;14507;52.418;13.398;2023-05-08T10:16:23;17.50;68.60
26952;DHT22;14507;52.418;13.398;2023-05-08T10:18:49;17.20;69.70
26952;DHT22;14507;52.418;13.398;2023-05-08T10:21:22;17.10;69.00
26952;DHT22;14507;52.418;13.398;2023-05-08T10:23:51;17.10;70.10
26952;DHT22;14507;52.418;13.398;2023-05-08T10:26:26;17.30;70.00
26952;DHT22;14507;52.418;13.398;2023-05-08T10:28:55;17.60;67.50
26952;DHT22;14507;52.418;13.398;2023-05-08T10:31:26;17.70;66.70
26952;DHT22;14507;52.418;13.398;2023-05-08T10:33:54;17.90;69.10
26952;DHT22;14507;52.418;13.398;2023-05-08T10:36:22;17.50;67.40
26952;DHT22;14507;52.418;13.398;2023-05-08T10:38:48;17.40;68.00
26952;DHT22;14507;52.418;13.398;2023-05-08T10:41:14;17.60;67.50
26952;DHT22;14507;52.418;13.398;2023-05-08T10:43:43;17.70;67.30
26952;DHT22;14507;52.418;13.398;2023-05-08T10:46:21;17.70;66.40
26952;DHT22;14507;52.418;13.398;2023-05-08T10:49:48;17.50;66.70
26952;DHT22;14507;52.418;13.398;2023-05-08T10:57:23;17.40;65.50
26952;DHT22;14507;52.418;13.398;2023-05-08T10:59:49;17.40;66.80
26952;DHT22;14507;52.418;13.398;2023-05-08T11:02:14;17.40;65.30
26952;DHT22;14507;52.418;13.398;2023-05-08T11:04:41;17.20;67.40
26952;DHT22;14507;52.418;13.398;2023-05-08T11:07:07;17.20;67.00
26952;DHT22;14507;52.418;13.398;2023-05-08T11:14:52;17.20;66.90
26952;DHT22;14507;52.418;13.398;2023-05-08T11:17:23;17.10;67.80
26952;DHT22;14507;52.418;13.398;2023-05-08T11:20:03;16.90;66.80
26952;DHT22;14507;52.418;13.398;2023-05-08T11:22:33;16.90;67.80
26952;DHT22;14507;52.418;13.398;2023-05-08T11:25:07;17.00;67.00
26952;DHT22;14507;52.418;13.398;2023-05-08T11:30:33;17.10;66.10
26952;DHT22;14507;52.418;13.398;2023-05-08T11:41:06;17.60;67.50
26952;DHT22;14507;52.418;13.398;2023-05-08T11:46:07;17.80;66.00
26952;DHT22;14507;52.418;13.398;2023-05-08T11:48:38;17.70;66.60
26952;DHT22;14507;52.418;13.398;2023-05-08T11:51:04;17.60;66.60
26952;DHT22;14507;52.418;13.398;2023-05-08T11:53:30;17.80;68.30
26952;DHT22;14507;52.418;13.398;2023-05-08T11:55:57;17.90;65.00
26952;DHT22;14507;52.418;13.398;2023-05-08T11:58:23;17.90;64.90
26952;DHT22;14507;52.418;13.398;2023-05-08T12:00:48;17.80;66.40
26952;DHT22;14507;52.418;13.398;2023-05-08T12:03:19;17.80;65.90
26952;DHT22;14507;52.418;13.398;2023-05-08T12:05:46;17.80;64.90
26952;DHT22;14507;52.418;13.398;2023-05-08T12:08:13;17.70;64.20
26952;DHT22;14507;52.418;13.398;2023-05-08T12:10:49;17.60;66.40
26952;DHT22;14507;52.418;13.398;2023-05-08T12:13:20;17.80;64.90
26952;DHT22;14507;52.418;13.398;2023-05-08T12:15:50;17.80;64.10
26952;DHT22;14507;52.418;13.398;2023-05-08T12:18:17;17.80;64.50
26952;DHT22;14507;52.418;13.398;2023-05-08T12:20:43;17.90;64.00
26952;DHT22;14507;52.418;13.398;2023-05-08T12:23:09;18.00;63.20
26952;DHT22;14507;52.418;13.398;2023-05-08T12:25:38;18.10;65.00
26952;DHT22;14507;52.418;13.398;2023-05-08T12:28:10;18.20;65.20
26952;DHT22;14507;52.418;13.398;2023-05-08T12:30:36;18.10;63.00
26952;DHT22;14507;52.418;13.398;2023-05-08T12:33:03;18.20;62.10
26952;DHT22;14507;52.418;13.398;2023-05-08T12:35:30;18.00;62.50
26952;DHT22;14507;52.418;13.398;2023-05-08T12:38:04;17.90;63.20
26952;DHT22;14507;52.418;13.398;2023-05-08T12:40:33;17.90;62.70
26952;DHT22;14507;52.418;13.398;2023-05-08T12:42:59;17.80;64.20
26952;DHT22;14507;52.418;13.398;2023-05-08T12:45:45;17.70;64.20
26952;DHT22;14507;52.418;13.398;2023-05-08T12:48:13;17.70;65.00
26952;DHT22;14507;52.418;13.398;2023-05-08T12:50:43;17.70;64.80
26952;DHT22;14507;52.418;13.398;2023-05-08T12:53:12;17.70;65.10
26952;DHT22;14507;52.418;13.398;2023-05-08T12:55:39;17.80;66.30
26952;DHT22;14507;52.418;13.398;2023-05-08T12:58:12;17.90;63.80
26952;DHT22;14507;52.418;13.398;2023-05-08T13:00:42;17.80;63.00
26952;DHT22;14507;52.418;13.398;2023-05-08T13:03:10;17.80;65.70
26952;DHT22;14507;52.418;13.398;2023-05-08T13:05:39;17.90;63.20
26952;DHT22;14507;52.418;13.398;2023-05-08T13:08:06;17.90;64.00
26952;DHT22;14507;52.418;13.398;2023-05-08T13:13:12;18.00;63.70
26952;DHT22;14507;52.418;13.398;2023-05-08T13:15:37;18.10;62.00
26952;DHT22;14507;52.418;13.398;2023-05-08T13:18:03;17.90;62.10
26952;DHT22;14507;52.418;13.398;2023-05-08T13:20:29;17.90;64.50
26952;DHT22;14507;52.418;13.398;2023-05-08T13:22:54;18.00;62.40
26952;DHT22;14507;52.418;13.398;2023-05-08T13:25:20;18.00;62.20
26952;DHT22;14507;52.418;13.398;2023-05-08T13:27:46;18.10;63.70
26952;DHT22;14507;52.418;13.398;2023-05-08T13:30:12;18.20;63.20
26952;DHT22;14507;52.418;13.398;2023-05-08T13:32:39;18.30;62.20
26952;DHT22;14507;52.418;13.398;2023-05-08T13:35:05;18.30;64.10
26952;DHT22;14507;52.418;13.398;2023-05-08T13:37:31;18.40;62.30
26952;DHT22;14507;52.418;13.398;2023-05-08T13:39:56;18.50;62.10
26952;DHT22;14507;52.418;13.398;2023-05-08T13:42:22;18.60;61.50
26952;DHT22;14507;52.418;13.398;2023-05-08T13:44:48;18.60;61.20
26952;DHT22;14507;52.418;13.398;2023-05-08T13:47:13;18.50;61.40
26952;DHT22;14507;52.418;13.398;2023-05-08T13:49:39;18.20;61.20
26952;DHT22;14507;52.418;13.398;2023-05-08T13:52:04;18.20;60.90
26952;DHT22;14507;52.418;13.398;2023-05-08T13:54:30;18.20;62.50
26952;DHT22;14507;52.418;13.398;2023-05-08T13:56:55;18.30;60.70
26952;DHT22;14507;52.418;13.398;2023-05-08T13:59:21;18.40;63.50
26952;DHT22;14507;52.418;13.398;2023-05-08T14:01:47;18.40;62.20
26952;DHT22;14507;52.418;13.398;2023-05-08T14:04:12;18.50;60.90
26952;DHT22;14507;52.418;13.398;2023-05-08T14:06:38;18.50;60.90
26952;DHT22;14507;52.418;13.398;2023-05-08T14:09:04;18.60;62.30
26952;DHT22;14507;52.418;13.398;2023-05-08T14:11:29;18.60;61.80
26952;DHT22;14507;52.418;13.398;2023-05-08T14:13:55;18.70;61.70
26952;DHT22;14507;52.418;13.398;2023-05-08T14:16:21;18.60;61.60
26952;DHT22;14507;52.418;13.398;2023-05-08T14:18:46;18.60;61.90
26952;DHT22;14507;52.418;13.398;2023-05-08T14:21:12;18.50;61.40
26952;DHT22;14507;52.418;13.398;2023-05-08T14:23:37;18.50;61.90
26952;DHT22;14507;52.418;13.398;2023-05-08T14:26:03;18.50;62.50
26952;DHT22;14507;52.418;13.398;2023-05-08T14:28:29;18.50;61.90
26952;DHT22;14507;52.418;13.398;2023-05-08T14:30:55;18.50;61.30
26952;DHT22;14507;52.418;13.398;2023-05-08T14:33:21;18.50;62.10
26952;DHT22;14507;52.418;13.398;2023-05-08T14:35:46;18.60;61.40
26952;DHT22;14507;52.418;13.398;2023-05-08T14:38:13;18.50;61.60
26952;DHT22;14507;52.418;13.398;2023-05-08T14:40:39;18.60;60.90
26952;DHT22;14507;52.418;13.398;2023-05-08T14:43:05;18.50;61.10
26952;DHT22;14507;52.418;13.398;2023-05-08T14:45:31;18.50;59.90
26952;DHT22;14507;52.418;13.398;2023-05-08T14:47:56;18.50;62.10
26952;DHT22;14507;52.418;13.398;2023-05-08T14:50:22;18.50;61.70
26952;DHT22;14507;52.418;13.398;2023-05-08T14:52:52;18.60;61.90
26952;DHT22;14507;52.418;13.398;2023-05-08T14:55:18;18.60;62.30
26952;DHT22;14507;52.418;13.398;2023-05-08T14:57:48;18.60;60.90
26952;DHT22;14507;52.418;13.398;2023-05-08T15:00:14;18.50;60.70
26952;DHT22;14507;52.418;13.398;2023-05-08T15:02:41;18.50;61.10
26952;DHT22;14507;52.418;13.398;2023-05-08T15:05:07;18.40;61.00
26952;DHT22;14507;52.418;13.398;2023-05-08T15:07:33;18.50;62.30
26952;DHT22;14507;52.418;13.398;2023-05-08T15:09:59;18.50;60.20
26952;DHT22;14507;52.418;13.398;2023-05-08T15:12:24;18.50;61.50
26952;DHT22;14507;52.418;13.398;2023-05-08T15:14:50;18.50;60.70
26952;DHT22;14507;52.418;13.398;2023-05-08T15:17:15;18.50;60.60
26952;DHT22;14507;52.418;13.398;2023-05-08T15:19:42;18.50;59.90
26952;DHT22;14507;52.418;13.398;2023-05-08T15:22:08;18.50;60.10
26952;DHT22;14507;52.418;13.398;2023-05-08T15:24:33;18.50;59.80
26952;DHT22;14507;52.418;13.398;2023-05-08T15:26:59;18.50;59.90
26952;DHT22;14507;52.418;13.398;2023-05-08T15:29:25;18.40;60.50
26952;DHT22;14507;52.418;13.398;2023-05-08T15:31:53;18.40;61.40
26952;DHT22;14507;52.418;13.398;2023-05-08T15:34:19;18.40;61.90
26952;DHT22;14507;52.418;13.398;2023-05-08T15:36:45;18.30;62.70
26952;DHT22;14507;52.418;13.398;2023-05-08T15:39:11;18.30;61.90
26952;DHT22;14507;52.418;13.398;2023-05-08T15:41:37;18.20;62.30
26952;DHT22;14507;52.418;13.398;2023-05-08T15:44:04;18.10;62.10
26952;DHT22;14507;52.418;13.398;2023-05-08T15:46:30;18.10;62.00
26952;DHT22;14507;52.418;13.398;2023-05-08T15:48:56;18.10;62.20
26952;DHT22;14507;52.418;13.398;2023-05-08T15:51:22;18.10;62.90
26952;DHT22;14507;52.418;13.398;2023-05-08T15:53:47;18.10;61.60
26952;DHT22;14507;52.418;13.398;2023-05-08T15:56:13;18.10;62.10
26952;DHT22;14507;52.418;13.398;2023-05-08T15:58:39;18.10;61.30
26952;DHT22;14507;52.418;13.398;2023-05-08T16:01:05;18.10;62.30
26952;DHT22;14507;52.418;13.398;2023-05-08T16:03:32;18.10;62.10
26952;DHT22;14507;52.418;13.398;2023-05-08T16:05:57;18.00;62.60
26952;DHT22;14507;52.418;13.398;2023-05-08T16:08:23;18.00;62.30
26952;DHT22;14507;52.418;13.398;2023-05-08T16:10:49;18.10;61.60
26952;DHT22;14507;52.418;13.398;2023-05-08T16:13:14;18.00;62.00
26952;DHT22;14507;52.418;13.398;2023-05-08T16:15:41;18.00;62.00
26952;DHT22;14507;52.418;13.398;2023-05-08T16:18:06;18.00;62.00
26952;DHT22;14507;52.418;13.398;2023-05-08T16:20:32;18.00;61.30
26952;DHT22;14507;52.418;13.398;2023-05-08T16:22:58;17.90;61.20